createdAt,value
2022-10-14T00:02:09.069Z,14.80
2022-10-14T00:04:35.836Z,14.70
2022-10-14T00:07:02.591Z,16.15
2022-10-14T00:09:29.518Z,14.90
2022-10-14T00:11:56.279Z,14.07
2022-10-14T00:14:22.949Z,13.45
2022-10-14T00:16:53.896Z,12.80
2022-10-14T00:19:20.546Z,12.77
2022-10-14T00:21:47.313Z,12.77
2022-10-14T00:24:16.130Z,11.90
2022-10-14T00:26:43.455Z,12.63
2022-10-14T00:29:15.247Z,11.27
2022-10-14T00:31:41.946Z,11.88
2022-10-14T00:34:12.867Z,18.85
2022-10-14T00:36:40.991Z,14.35
2022-10-14T00:39:08.226Z,49.20
2022-10-14T00:41:35.843Z,15.10
2022-10-14T00:44:07.342Z,13.63
2022-10-14T00:46:39.202Z,13.05
2022-10-14T00:49:10.469Z,13.98
2022-10-14T00:51:39.697Z,14.60
2022-10-14T00:54:07.294Z,14.43
2022-10-14T00:56:36.217Z,13.48
2022-10-14T00:59:04.287Z,12.52
2022-10-14T01:01:31.373Z,13.63
2022-10-14T01:03:58.077Z,12.15
2022-10-14T01:07:14.518Z,11.45
2022-10-14T01:09:52.411Z,12.90
2022-10-14T01:12:37.501Z,12.10
2022-10-14T01:15:11.918Z,11.30
2022-10-14T01:17:44.569Z,12.93
2022-10-14T01:20:30.639Z,15.07
2022-10-14T01:23:36.864Z,12.63
2022-10-14T01:26:41.453Z,12.68
2022-10-14T01:29:43.439Z,11.90
2022-10-14T01:32:32.183Z,10.73
2022-10-14T01:35:29.970Z,10.88
2022-10-14T01:38:00.943Z,11.00
2022-10-14T01:40:50.928Z,10.13
2022-10-14T01:43:21.283Z,10.10
2022-10-14T01:45:49.968Z,11.20
2022-10-14T01:48:19.487Z,11.32
2022-10-14T01:50:49.590Z,10.70
2022-10-14T01:53:24.162Z,11.27
2022-10-14T01:55:53.823Z,11.20
2022-10-14T01:58:23.323Z,11.75
2022-10-14T02:00:50.378Z,12.90
2022-10-14T02:03:17.134Z,12.57
2022-10-14T02:05:51.372Z,11.93
2022-10-14T02:08:25.365Z,12.23
2022-10-14T02:11:12.334Z,13.90
2022-10-14T02:14:11.272Z,13.07
2022-10-14T02:17:19.072Z,13.23
2022-10-14T02:20:00.952Z,13.60
2022-10-14T02:22:48.304Z,14.57
2022-10-14T02:25:45.323Z,13.60
2022-10-14T02:28:16.594Z,13.85
2022-10-14T02:30:49.798Z,14.13
2022-10-14T02:33:20.778Z,14.30
2022-10-14T02:35:51.875Z,13.75
2022-10-14T02:38:20.264Z,15.00
2022-10-14T02:40:49.841Z,14.32
2022-10-14T02:43:17.420Z,15.73
2022-10-14T02:45:44.606Z,16.02
2022-10-14T02:48:12.846Z,16.33
2022-10-14T02:50:40.965Z,16.48
2022-10-14T02:53:07.966Z,15.25
2022-10-14T02:55:34.897Z,16.95
2022-10-14T02:58:01.688Z,16.58
2022-10-14T03:00:28.388Z,17.00
2022-10-14T03:02:55.202Z,15.93
2022-10-14T03:05:21.907Z,27.40
2022-10-14T03:07:48.676Z,72.95
2022-10-14T03:10:15.423Z,27.48
2022-10-14T03:12:42.192Z,19.17
2022-10-14T03:15:09.696Z,17.42
2022-10-14T03:17:36.707Z,18.17
2022-10-14T03:20:07.459Z,17.45
2022-10-14T03:22:34.590Z,17.77
2022-10-14T03:25:01.339Z,17.83
2022-10-14T03:27:28.270Z,17.95
2022-10-14T03:29:55.043Z,17.95
2022-10-14T03:32:21.932Z,18.38
2022-10-14T03:34:48.797Z,18.63
2022-10-14T03:37:15.554Z,19.17
2022-10-14T03:39:44.953Z,19.13
2022-10-14T03:42:11.685Z,18.75
2022-10-14T03:44:39.583Z,19.08
2022-10-14T03:47:06.299Z,18.88
2022-10-14T03:49:32.993Z,18.48
2022-10-14T03:51:59.674Z,19.95
2022-10-14T03:54:26.408Z,19.45
2022-10-14T03:56:53.071Z,21.05
2022-10-14T03:59:19.770Z,20.33
2022-10-14T04:01:46.557Z,21.38
2022-10-14T04:04:13.312Z,21.35
2022-10-14T04:06:40.013Z,22.45
2022-10-14T04:09:06.963Z,22.90
2022-10-14T04:11:33.872Z,21.13
2022-10-14T04:14:01.389Z,22.08
2022-10-14T04:16:28.902Z,21.60
2022-10-14T04:18:55.578Z,21.75
2022-10-14T04:21:22.254Z,22.30
2022-10-14T04:23:48.932Z,22.42
2022-10-14T04:26:15.683Z,22.35
2022-10-14T04:28:42.657Z,21.63
2022-10-14T04:31:09.570Z,23.42
2022-10-14T04:33:36.572Z,22.90
2022-10-14T04:36:05.914Z,22.70
2022-10-14T04:38:34.028Z,22.70
2022-10-14T04:41:01.029Z,23.38
2022-10-14T04:43:27.714Z,24.95
2022-10-14T04:45:54.534Z,24.98
2022-10-14T04:48:21.660Z,25.33
2022-10-14T04:50:52.201Z,24.85
2022-10-14T04:55:49.740Z,24.92
2022-10-14T04:58:17.320Z,26.55
2022-10-14T05:00:44.104Z,24.20
2022-10-14T05:03:11.918Z,26.02
2022-10-14T05:05:38.636Z,26.08
2022-10-14T05:08:05.752Z,25.10
2022-10-14T05:10:33.873Z,27.63
2022-10-14T05:13:00.523Z,26.40
2022-10-14T05:15:27.299Z,27.30
2022-10-14T05:17:54.055Z,26.33
2022-10-14T05:20:20.721Z,23.98
2022-10-14T05:22:47.474Z,22.33
2022-10-14T05:25:15.274Z,22.63
2022-10-14T05:27:42.002Z,22.73
2022-10-14T05:30:09.733Z,23.35
2022-10-14T05:33:18.251Z,22.45
2022-10-14T05:35:58.617Z,22.85
2022-10-14T05:38:26.374Z,24.05
2022-10-14T05:40:57.141Z,23.23
2022-10-14T05:43:32.131Z,25.88
2022-10-14T05:45:59.858Z,24.02
2022-10-14T05:48:26.617Z,22.70
2022-10-14T05:50:53.385Z,23.77
2022-10-14T05:53:20.199Z,27.23
2022-10-14T05:55:46.866Z,24.35
2022-10-14T05:58:13.595Z,23.52
2022-10-14T06:00:40.455Z,23.58
2022-10-14T06:03:07.189Z,38.67
2022-10-14T06:05:37.200Z,23.75
2022-10-14T06:08:05.185Z,22.70
2022-10-14T06:10:31.866Z,23.63
2022-10-14T06:12:58.543Z,27.10
2022-10-14T06:15:25.318Z,24.58
2022-10-14T06:17:52.070Z,23.80
2022-10-14T06:20:18.705Z,23.25
2022-10-14T06:22:54.230Z,22.95
2022-10-14T06:25:20.931Z,23.38
2022-10-14T06:27:47.700Z,23.73
2022-10-14T06:30:14.489Z,23.13
2022-10-14T06:32:42.709Z,23.17
2022-10-14T06:35:09.915Z,28.95
2022-10-14T06:37:36.603Z,36.35
2022-10-14T06:40:03.972Z,24.30
2022-10-14T06:42:30.927Z,24.50
2022-10-14T06:44:57.662Z,23.70
2022-10-14T06:47:24.421Z,23.40
2022-10-14T06:49:51.140Z,34.85
2022-10-14T06:52:17.869Z,23.38
2022-10-14T06:54:48.140Z,118.05
2022-10-14T06:57:15.458Z,22.85
2022-10-14T06:59:42.322Z,24.35
2022-10-14T07:02:10.140Z,29.77
2022-10-14T07:04:36.920Z,22.60
2022-10-14T07:07:09.609Z,24.60
2022-10-14T07:09:36.307Z,20.60
2022-10-14T07:12:03.224Z,19.85
2022-10-14T07:14:29.935Z,20.33
2022-10-14T07:16:56.663Z,18.92
2022-10-14T07:19:23.475Z,22.23
2022-10-14T07:21:50.327Z,16.67
2022-10-14T07:24:17.109Z,19.20
2022-10-14T07:26:52.291Z,18.00
2022-10-14T07:29:19.079Z,25.75
2022-10-14T07:31:45.796Z,30.23
2022-10-14T07:34:12.572Z,22.75
2022-10-14T07:36:39.480Z,18.20
2022-10-14T07:39:06.238Z,14.85
2022-10-14T07:41:33.958Z,14.63
2022-10-14T07:44:05.867Z,19.80
2022-10-14T07:46:35.004Z,15.40
2022-10-14T07:49:03.039Z,15.20
2022-10-14T07:51:30.377Z,14.23
2022-10-14T07:53:59.310Z,14.52
2022-10-14T07:56:26.860Z,15.55
2022-10-14T07:58:54.219Z,16.33
2022-10-14T08:01:21.181Z,20.08
2022-10-14T08:03:48.500Z,16.77
2022-10-14T08:06:15.304Z,17.77
2022-10-14T08:08:42.574Z,16.73
2022-10-14T08:11:12.259Z,17.40
2022-10-14T08:13:43.407Z,18.00
2022-10-14T08:16:18.600Z,17.58
2022-10-14T08:18:46.468Z,16.48
2022-10-14T08:21:13.946Z,17.70
2022-10-14T08:23:40.736Z,17.15
2022-10-14T08:26:24.100Z,19.17
2022-10-14T08:28:53.628Z,19.42
2022-10-14T08:31:21.271Z,19.43
2022-10-14T08:33:48.267Z,19.63
2022-10-14T08:36:15.656Z,23.83
2022-10-14T08:38:42.885Z,23.60
2022-10-14T08:41:12.579Z,21.05
2022-10-14T08:44:04.024Z,21.40
2022-10-14T08:46:40.902Z,20.60
2022-10-14T08:49:13.928Z,21.48
2022-10-14T08:51:45.835Z,20.67
2022-10-14T08:54:43.177Z,21.95
2022-10-14T08:57:41.948Z,22.08
2022-10-14T09:00:11.492Z,22.45
2022-10-14T09:02:40.496Z,23.83
2022-10-14T09:05:13.301Z,22.55
2022-10-14T09:07:40.304Z,24.90
2022-10-14T09:10:31.965Z,21.67
2022-10-14T09:13:35.059Z,21.40
2022-10-14T09:16:34.548Z,21.63
2022-10-14T09:19:06.054Z,23.25
2022-10-14T09:24:27.728Z,21.90
2022-10-14T09:27:00.830Z,21.88
2022-10-14T09:29:33.299Z,22.92
2022-10-14T09:32:04.136Z,22.65
2022-10-14T09:34:45.602Z,21.88
2022-10-14T09:37:30.456Z,19.70
2022-10-14T09:40:10.386Z,24.13
2022-10-14T09:42:55.724Z,22.00
2022-10-14T09:45:24.648Z,20.23
2022-10-14T09:48:04.145Z,20.00
2022-10-14T09:50:43.636Z,19.85
2022-10-14T09:53:26.397Z,19.58
2022-10-14T09:55:56.783Z,20.13
2022-10-14T09:58:33.605Z,19.17
2022-10-14T10:01:01.636Z,18.92
2022-10-14T10:03:28.393Z,17.88
2022-10-14T10:06:23.616Z,18.17
2022-10-14T10:08:53.131Z,18.75
2022-10-14T10:11:46.878Z,17.80
2022-10-14T10:14:26.774Z,17.25
2022-10-14T10:17:08.753Z,17.75
2022-10-14T10:19:43.128Z,15.25
2022-10-14T10:22:24.630Z,15.95
2022-10-14T10:25:12.813Z,15.77
2022-10-14T10:27:42.170Z,14.57
2022-10-14T10:30:17.915Z,14.02
2022-10-14T10:33:09.656Z,15.05
2022-10-14T10:36:05.479Z,14.82
2022-10-14T10:39:01.929Z,14.85
2022-10-14T10:41:49.763Z,13.38
2022-10-14T10:44:40.301Z,15.45
2022-10-14T10:49:50.942Z,12.70
2022-10-14T10:52:51.936Z,13.90
2022-10-14T10:55:37.373Z,13.65
2022-10-14T10:58:18.065Z,13.75
2022-10-14T11:01:03.507Z,12.95
2022-10-14T11:04:07.620Z,17.10
2022-10-14T11:07:06.065Z,19.67
2022-10-14T11:16:07.701Z,11.48
2022-10-14T11:18:56.184Z,10.95
2022-10-14T11:21:37.592Z,11.75
2022-10-14T11:27:08.504Z,8.73
2022-10-14T11:30:10.652Z,15.32
2022-10-14T11:33:02.578Z,7.55
2022-10-14T11:36:06.943Z,6.80
2022-10-14T11:39:08.044Z,5.70
2022-10-14T11:41:48.835Z,6.43
2022-10-14T11:44:24.635Z,5.82
2022-10-14T11:46:56.403Z,5.50
2022-10-14T11:49:31.073Z,5.63
2022-10-14T11:52:12.093Z,5.15
2022-10-14T11:54:42.598Z,6.03
2022-10-14T12:00:07.664Z,5.88
2022-10-14T12:02:44.100Z,6.32
2022-10-14T12:05:24.567Z,6.82
2022-10-14T12:10:33.025Z,5.95
2022-10-14T12:13:01.178Z,4.68
2022-10-14T12:18:02.816Z,6.68
2022-10-14T12:20:44.832Z,6.90
2022-10-14T12:23:30.178Z,4.38
2022-10-14T12:26:37.370Z,5.65
2022-10-14T12:29:04.910Z,6.28
2022-10-14T12:31:38.544Z,4.63
2022-10-14T12:34:11.265Z,9.60
2022-10-14T12:36:40.558Z,13.32
2022-10-14T12:39:19.559Z,9.50
2022-10-14T12:42:10.545Z,6.47
2022-10-14T12:44:56.119Z,4.30
2022-10-14T12:47:37.088Z,4.85
2022-10-14T12:50:03.830Z,5.35
2022-10-14T12:52:34.092Z,8.18
2022-10-14T12:55:05.158Z,5.38
2022-10-14T12:57:37.386Z,5.68
2022-10-14T13:00:30.496Z,5.00
2022-10-14T13:03:27.366Z,5.88
2022-10-14T13:06:28.300Z,4.35
2022-10-14T13:09:18.550Z,4.20
2022-10-14T13:12:06.199Z,4.18
2022-10-14T13:14:53.873Z,4.47
2022-10-14T13:17:47.352Z,5.10
2022-10-14T13:20:35.044Z,6.55
2022-10-14T13:23:31.264Z,5.82
2022-10-14T13:26:13.740Z,7.35
2022-10-14T13:28:50.976Z,7.10
2022-10-14T13:31:31.574Z,7.55
2022-10-14T13:34:34.763Z,7.78
2022-10-14T13:37:38.843Z,7.53
2022-10-14T13:40:36.942Z,7.03
2022-10-14T13:43:08.752Z,7.50
2022-10-14T13:45:48.049Z,6.93
2022-10-14T13:48:19.391Z,6.93
2022-10-14T13:50:50.394Z,7.15
2022-10-14T13:53:20.949Z,7.20
2022-10-14T13:55:54.566Z,5.53
2022-10-14T13:58:25.018Z,5.72
2022-10-14T14:00:58.122Z,5.43
2022-10-14T14:03:26.121Z,5.57
2022-10-14T14:05:53.796Z,5.40
2022-10-14T14:08:40.419Z,5.32
2022-10-14T14:11:16.793Z,5.28
2022-10-14T14:14:02.940Z,5.68
2022-10-14T14:16:41.548Z,5.50
2022-10-14T14:19:27.091Z,5.45
2022-10-14T14:22:18.678Z,5.35
2022-10-14T14:24:47.015Z,5.90
2022-10-14T14:27:23.593Z,5.82
2022-10-14T14:29:52.082Z,6.05
2022-10-14T14:32:30.393Z,6.28
2022-10-14T14:34:57.745Z,6.10
2022-10-14T14:37:55.302Z,6.40
2022-10-14T14:40:17.822Z,6.90
2022-10-14T14:42:47.282Z,6.18
2022-10-14T14:45:25.916Z,6.60
2022-10-14T14:47:55.248Z,6.75
2022-10-14T14:50:30.944Z,6.75
2022-10-14T14:53:03.147Z,9.15
2022-10-14T14:55:38.736Z,7.95
2022-10-14T14:58:16.441Z,8.52
2022-10-14T15:00:46.237Z,8.07
2022-10-14T15:03:13.395Z,8.88
2022-10-14T15:05:40.167Z,8.90
2022-10-14T15:08:23.976Z,9.45
2022-10-14T15:10:54.938Z,9.57
2022-10-14T15:13:29.616Z,9.85
2022-10-14T15:15:57.382Z,10.20
2022-10-14T15:18:28.080Z,10.02
2022-10-14T15:21:12.993Z,10.30
2022-10-14T15:24:00.441Z,9.85
2022-10-14T15:26:38.095Z,10.57
2022-10-14T15:29:15.426Z,10.95
2022-10-14T15:31:48.418Z,10.93
2022-10-14T15:34:18.303Z,11.38
2022-10-14T15:36:45.280Z,11.63
2022-10-14T15:39:14.974Z,11.77
2022-10-14T15:41:43.623Z,12.65
2022-10-14T15:44:10.309Z,11.43
2022-10-14T15:46:56.705Z,12.35
2022-10-14T15:49:32.974Z,11.57
2022-10-14T15:51:59.686Z,11.43
2022-10-14T15:54:27.615Z,11.50
2022-10-14T15:56:58.184Z,11.30
2022-10-14T15:59:25.636Z,11.45
2022-10-14T16:01:52.910Z,12.10
2022-10-14T16:04:24.817Z,12.20
2022-10-14T16:06:56.751Z,10.82
2022-10-14T16:09:26.627Z,11.25
2022-10-14T16:11:59.362Z,12.30
2022-10-14T16:14:27.642Z,11.80
2022-10-14T16:16:55.230Z,11.38
2022-10-14T16:19:22.134Z,12.30
2022-10-14T16:21:50.282Z,12.10
2022-10-14T16:24:20.236Z,11.55
2022-10-14T16:26:48.957Z,11.20
2022-10-14T16:29:18.035Z,10.77
2022-10-14T16:31:50.051Z,9.88
2022-10-14T16:34:18.592Z,9.57
2022-10-14T16:36:46.007Z,8.82
2022-10-14T16:39:13.163Z,9.25
2022-10-14T16:41:39.905Z,9.02
2022-10-14T16:44:06.962Z,8.73
2022-10-14T16:46:52.136Z,9.93
2022-10-14T16:49:18.790Z,9.13
2022-10-14T16:51:46.506Z,8.73
2022-10-14T16:54:13.170Z,8.38
2022-10-14T16:56:55.027Z,9.13
2022-10-14T16:59:24.092Z,8.50
2022-10-14T17:01:51.527Z,9.23
2022-10-14T17:04:19.573Z,8.65
2022-10-14T17:06:47.277Z,8.18
2022-10-14T17:09:16.069Z,9.05
2022-10-14T17:11:43.122Z,8.70
2022-10-14T17:14:12.543Z,8.48
2022-10-14T17:16:39.361Z,9.52
2022-10-14T17:19:06.090Z,9.50
2022-10-14T17:21:32.867Z,8.85
2022-10-14T17:24:01.888Z,8.57
2022-10-14T17:26:30.094Z,9.45
2022-10-14T17:28:57.922Z,9.32
2022-10-14T17:31:25.879Z,8.73
2022-10-14T17:33:53.183Z,9.18
2022-10-14T17:36:23.781Z,8.85
2022-10-14T17:38:52.092Z,8.77
2022-10-14T17:41:19.522Z,8.23
2022-10-14T17:43:49.511Z,7.60
2022-10-14T17:46:20.573Z,7.80
2022-10-14T17:48:52.280Z,7.70
2022-10-14T17:51:23.672Z,8.60
2022-10-14T17:53:53.815Z,7.63
2022-10-14T17:56:20.795Z,7.70
2022-10-14T17:58:47.542Z,7.60
2022-10-14T18:01:16.051Z,8.10
2022-10-14T18:03:44.812Z,8.18
2022-10-14T18:06:17.287Z,15.55
2022-10-14T18:08:48.627Z,15.65
2022-10-14T18:11:16.509Z,10.10
2022-10-14T18:13:43.203Z,9.18
2022-10-14T18:16:13.199Z,8.45
2022-10-14T18:18:42.711Z,7.75
2022-10-14T18:21:10.235Z,9.03
2022-10-14T18:23:39.073Z,9.10
2022-10-14T18:26:17.359Z,8.18
2022-10-14T18:28:47.787Z,8.57
2022-10-14T18:31:16.765Z,9.05
2022-10-14T18:33:44.098Z,8.50
2022-10-14T18:36:14.659Z,8.82
2022-10-14T18:38:42.634Z,8.13
2022-10-14T18:41:14.585Z,9.10
2022-10-14T18:43:41.676Z,10.38
2022-10-14T18:46:18.636Z,10.80
2022-10-14T18:48:51.025Z,10.63
2022-10-14T18:51:20.837Z,10.63
2022-10-14T18:53:48.493Z,11.38
2022-10-14T18:56:18.136Z,11.75
2022-10-14T18:58:47.211Z,11.82
2022-10-14T19:01:15.642Z,12.00
2022-10-14T19:03:43.265Z,12.43
2022-10-14T19:06:12.907Z,13.55
2022-10-14T19:08:44.988Z,13.10
2022-10-14T19:11:20.407Z,13.27
2022-10-14T19:13:52.485Z,12.52
2022-10-14T19:16:23.451Z,12.75
2022-10-14T19:18:58.673Z,12.65
2022-10-14T19:21:39.785Z,13.70
2022-10-14T19:24:21.929Z,12.90
2022-10-14T19:26:49.984Z,14.02
2022-10-14T19:29:17.043Z,14.13
2022-10-14T19:31:44.459Z,13.77
2022-10-14T19:34:14.421Z,14.45
2022-10-14T19:36:42.400Z,15.40
2022-10-14T19:39:12.714Z,14.80
2022-10-14T19:41:43.165Z,15.02
2022-10-14T19:44:11.273Z,14.88
2022-10-14T19:46:39.734Z,14.43
2022-10-14T19:49:06.563Z,13.10
2022-10-14T19:51:34.345Z,14.85
2022-10-14T19:54:01.231Z,15.52
2022-10-14T19:56:28.791Z,15.57
2022-10-14T19:58:57.547Z,16.45
2022-10-14T20:01:26.777Z,21.02
2022-10-14T20:03:54.031Z,20.35
2022-10-14T20:06:21.918Z,25.67
2022-10-14T20:08:58.475Z,33.00
2022-10-14T20:11:26.436Z,34.90
2022-10-14T20:13:53.109Z,28.15
2022-10-14T20:16:21.974Z,24.02
2022-10-14T20:18:48.722Z,20.10
2022-10-14T20:21:16.401Z,17.98
2022-10-14T20:23:44.383Z,17.67
2022-10-14T20:26:17.357Z,17.35
2022-10-14T20:28:44.399Z,17.25
2022-10-14T20:31:13.620Z,16.90
2022-10-14T20:33:40.926Z,17.52
2022-10-14T20:36:13.557Z,17.85
2022-10-14T20:38:41.494Z,16.38
2022-10-14T20:41:13.761Z,16.77
2022-10-14T20:43:41.970Z,17.23
2022-10-14T20:46:08.809Z,17.02
2022-10-14T20:48:39.674Z,16.23
2022-10-14T20:51:07.853Z,16.95
2022-10-14T20:53:34.599Z,17.65
2022-10-14T20:56:06.642Z,17.17
2022-10-14T20:58:33.931Z,16.33
2022-10-14T21:01:11.757Z,16.52
2022-10-14T21:03:38.906Z,15.75
2022-10-14T21:06:08.657Z,16.52
2022-10-14T21:08:36.381Z,15.13
2022-10-14T21:11:11.958Z,15.55
2022-10-14T21:13:44.951Z,15.93
2022-10-14T21:16:21.045Z,16.15
2022-10-14T21:19:10.075Z,16.20
2022-10-14T21:21:42.014Z,16.70
2022-10-14T21:24:17.819Z,16.95
2022-10-14T21:26:47.970Z,17.00
2022-10-14T21:29:15.063Z,16.70
2022-10-14T21:31:41.745Z,17.17
2022-10-14T21:34:10.004Z,16.42
2022-10-14T21:36:37.631Z,18.42
2022-10-14T21:39:15.773Z,18.48
2022-10-14T21:41:43.051Z,16.73
2022-10-14T21:44:13.972Z,19.05
2022-10-14T21:46:40.829Z,18.48
2022-10-14T21:49:10.334Z,18.92
2022-10-14T21:51:37.752Z,17.55
2022-10-14T21:54:05.227Z,19.15
2022-10-14T21:56:32.491Z,20.08
2022-10-14T21:58:59.581Z,20.75
2022-10-14T22:01:28.584Z,18.92
2022-10-14T22:04:04.791Z,20.38
2022-10-14T22:06:34.641Z,18.95
2022-10-14T22:09:03.124Z,21.30
2022-10-14T22:11:32.899Z,20.25
2022-10-14T22:14:01.312Z,23.80
2022-10-14T22:16:29.509Z,26.55
2022-10-14T22:18:59.455Z,24.08
2022-10-14T22:21:28.089Z,24.50
2022-10-14T22:23:54.959Z,23.38
2022-10-14T22:26:25.312Z,24.08
2022-10-14T22:29:07.577Z,23.40
2022-10-14T22:31:35.170Z,22.63
2022-10-14T22:34:04.467Z,24.17
2022-10-14T22:36:32.723Z,22.77
2022-10-14T22:39:01.110Z,22.95
2022-10-14T22:41:35.177Z,23.73
2022-10-14T22:44:03.015Z,22.20
2022-10-14T22:46:31.918Z,22.75
2022-10-14T22:48:59.027Z,22.35
2022-10-14T22:51:31.508Z,22.50
2022-10-14T22:53:58.715Z,22.88
2022-10-14T22:56:26.804Z,22.30
2022-10-14T22:58:58.421Z,22.63
2022-10-14T23:01:27.869Z,23.40
2022-10-14T23:03:56.186Z,23.33
2022-10-14T23:06:23.041Z,24.13
2022-10-14T23:08:49.832Z,23.08
2022-10-14T23:11:40.539Z,23.42
2022-10-14T23:14:07.624Z,23.17
2022-10-14T23:16:34.678Z,24.30
2022-10-14T23:19:01.439Z,26.02
2022-10-14T23:21:31.164Z,26.17
2022-10-14T23:24:16.710Z,27.67
2022-10-14T23:26:43.388Z,26.90
2022-10-14T23:29:11.669Z,26.73
2022-10-14T23:31:39.987Z,25.95
2022-10-14T23:34:13.153Z,26.88
2022-10-14T23:36:40.653Z,26.88
2022-10-14T23:39:07.507Z,26.88
2022-10-14T23:41:34.311Z,28.00
2022-10-14T23:44:01.052Z,25.30
2022-10-14T23:46:27.824Z,28.20
2022-10-14T23:49:06.792Z,27.15
2022-10-14T23:51:35.287Z,27.45
2022-10-14T23:54:02.052Z,28.00
2022-10-14T23:56:28.754Z,28.23
2022-10-14T23:58:55.497Z,28.98
